Time;durP1;ratioP1;P1;durP2;ratioP2;P2;SDS_P1;SDS_P2;PMS_P1;PMS_P2;Temp;Humidity;BMP_temperature;BMP_pressure;BME280_temperature;BME280_humidity;BME280_pressure;Samples;Min_cycle;Max_cycle;Signal;HPM_P1;HPM_P2
2021/06/15 00:00:56;;;;;;;3.70;3.30;;;;;;;;;;5079198;28;20441;-85
2021/06/15 00:03:23;;;;;;;3.67;3.37;;;;;;;;;;5082518;28;20182;-85
2021/06/15 00:05:49;;;;;;;4.15;3.75;;;;;;;;;;5081846;28;20464;-84
2021/06/15 00:08:15;;;;;;;4.18;3.88;;;;;;;;;;5078941;28;20186;-85
2021/06/15 00:10:45;;;;;;;4.00;3.67;;;;;;;;;;5080802;28;20176;-85
2021/06/15 00:13:11;;;;;;;4.15;3.42;;;;;;;;;;5080941;28;20175;-85
2021/06/15 00:15:40;;;;;;;5.25;4.25;;;;;;;;;;5081115;28;20191;-86
2021/06/15 00:18:06;;;;;;;6.72;3.83;;;;;;;;;;5093935;28;20229;-85
2021/06/15 00:20:32;;;;;;;4.83;4.43;;;;;;;;;;5079295;28;20307;-86
2021/06/15 00:22:58;;;;;;;3.80;3.50;;;;;;;;;;5079187;28;20453;-85
2021/06/15 00:25:24;;;;;;;4.57;4.17;;;;;;;;;;5080030;28;20213;-86
2021/06/15 00:27:50;;;;;;;3.35;3.05;;;;;;;;;;5078992;28;20530;-85
2021/06/15 00:30:17;;;;;;;3.88;3.58;;;;;;;;;;5081202;28;20182;-85
2021/06/15 00:32:45;;;;;;;4.07;3.45;;;;;;;;;;5080968;28;20265;-85
2021/06/15 00:35:11;;;;;;;4.05;3.65;;;;;;;;;;5078829;28;20189;-85
2021/06/15 00:37:37;;;;;;;3.95;3.65;;;;;;;;;;5078790;28;20193;-86
2021/06/15 00:40:04;;;;;;;4.50;4.05;;;;;;;;;;5081039;28;20239;-85
2021/06/15 00:42:30;;;;;;;3.90;3.58;;;;;;;;;;5079842;28;20178;-86
2021/06/15 00:44:56;;;;;;;4.18;3.80;;;;;;;;;;5095216;28;20192;-85
2021/06/15 00:47:23;;;;;;;5.80;4.10;;;;;;;;;;5079975;28;20229;-86
2021/06/15 00:49:49;;;;;;;3.90;3.38;;;;;;;;;;5081629;28;20449;-85
2021/06/15 00:52:15;;;;;;;4.40;3.50;;;;;;;;;;5080239;28;20205;-86
2021/06/15 00:54:43;;;;;;;4.32;3.45;;;;;;;;;;5094900;28;20435;-84
2021/06/15 00:57:14;;;;;;;4.63;3.47;;;;;;;;;;5085590;28;20185;-85
2021/06/15 00:59:40;;;;;;;4.95;3.72;;;;;;;;;;5086031;28;20177;-85
2021/06/15 01:02:06;;;;;;;3.87;3.57;;;;;;;;;;5083639;28;20217;-85
2021/06/15 01:04:32;;;;;;;5.20;3.80;;;;;;;;;;5082197;28;20453;-85
2021/06/15 01:06:58;;;;;;;4.28;3.97;;;;;;;;;;5084012;28;20481;-85
2021/06/15 01:09:44;;;;;;;3.83;3.53;;;;;;;;;;5085722;28;20185;-85
2021/06/15 01:12:29;;;;;;;3.92;3.53;;;;;;;;;;5098140;28;20420;-85
2021/06/15 01:15:01;;;;;;;3.65;3.40;;;;;;;;;;5083885;28;20180;-85
2021/06/15 01:17:41;;;;;;;5.10;4.05;;;;;;;;;;5081275;28;20192;-85
2021/06/15 01:20:18;;;;;;;3.85;3.55;;;;;;;;;;5083109;28;20183;-85
2021/06/15 01:22:44;;;;;;;5.13;4.72;;;;;;;;;;5085112;28;20181;-85
2021/06/15 01:25:13;;;;;;;4.28;3.60;;;;;;;;;;5084846;28;20225;-85
2021/06/15 01:27:39;;;;;;;6.28;3.83;;;;;;;;;;5082423;28;20569;-85
2021/06/15 01:30:08;;;;;;;4.70;4.20;;;;;;;;;;5092759;28;20201;-85
2021/06/15 01:32:35;;;;;;;4.35;3.95;;;;;;;;;;5099211;28;20428;-85
2021/06/15 01:35:03;;;;;;;5.45;3.90;;;;;;;;;;5082968;28;20193;-85
2021/06/15 01:37:35;;;;;;;7.03;3.80;;;;;;;;;;5082805;28;20185;-84
2021/06/15 01:40:22;;;;;;;5.47;3.95;;;;;;;;;;5083246;28;20186;-85
2021/06/15 01:42:53;;;;;;;3.83;3.53;;;;;;;;;;5078892;28;20246;-84
2021/06/15 01:45:29;;;;;;;4.03;3.72;;;;;;;;;;5084390;28;20256;-84
2021/06/15 01:48:07;;;;;;;4.30;4.00;;;;;;;;;;5094014;28;20229;-85
2021/06/15 01:50:34;;;;;;;5.05;4.00;;;;;;;;;;5080590;28;20184;-84
2021/06/15 01:53:01;;;;;;;4.00;3.53;;;;;;;;;;5081500;28;20189;-84
2021/06/15 01:55:28;;;;;;;3.53;3.22;;;;;;;;;;5081580;28;20183;-85
2021/06/15 01:57:56;;;;;;;5.35;3.83;;;;;;;;;;5083054;28;20192;-84
2021/06/15 02:00:22;;;;;;;4.47;3.70;;;;;;;;;;5082861;28;20384;-84
2021/06/15 02:02:49;;;;;;;4.10;3.75;;;;;;;;;;5082382;28;20181;-84
2021/06/15 02:05:17;;;;;;;4.28;3.88;;;;;;;;;;5082290;28;20332;-85
2021/06/15 02:07:44;;;;;;;4.75;4.15;;;;;;;;;;5079996;28;20185;-86
2021/06/15 02:10:12;;;;;;;4.47;4.10;;;;;;;;;;5082223;28;20180;-84
2021/06/15 02:12:41;;;;;;;4.40;4.10;;;;;;;;;;5083856;28;20180;-84
2021/06/15 02:15:08;;;;;;;6.03;4.85;;;;;;;;;;5084598;28;20165;-84
2021/06/15 02:17:35;;;;;;;4.47;4.07;;;;;;;;;;5080726;28;20174;-85
2021/06/15 02:20:01;;;;;;;5.40;4.90;;;;;;;;;;5081230;28;20189;-84
2021/06/15 02:22:28;;;;;;;4.75;4.35;;;;;;;;;;5080964;28;20185;-85
2021/06/15 02:24:56;;;;;;;4.75;4.35;;;;;;;;;;5083536;28;20210;-85
2021/06/15 02:27:23;;;;;;;5.93;4.30;;;;;;;;;;5082498;28;20175;-85
2021/06/15 02:29:51;;;;;;;8.52;4.97;;;;;;;;;;5083324;28;20180;-85
2021/06/15 02:32:20;;;;;;;6.55;4.43;;;;;;;;;;5081527;28;20219;-85
2021/06/15 02:34:48;;;;;;;4.70;4.30;;;;;;;;;;5079924;28;20209;-85
2021/06/15 02:37:15;;;;;;;3.90;3.60;;;;;;;;;;5079543;28;20644;-85
2021/06/15 02:39:41;;;;;;;4.80;4.40;;;;;;;;;;5090509;28;20180;-85
2021/06/15 02:42:09;;;;;;;5.70;5.15;;;;;;;;;;5095244;28;20174;-85
2021/06/15 02:44:37;;;;;;;6.68;4.40;;;;;;;;;;5079333;28;20176;-85
2021/06/15 02:47:03;;;;;;;4.57;4.18;;;;;;;;;;5074334;28;123731;-85
2021/06/15 02:49:30;;;;;;;5.75;5.18;;;;;;;;;;5069229;28;20190;-85
2021/06/15 02:52:07;;;;;;;5.03;4.53;;;;;;;;;;5080338;28;20216;-85
2021/06/15 02:54:35;;;;;;;4.30;3.90;;;;;;;;;;5081151;28;20199;-86
2021/06/15 02:57:02;;;;;;;5.25;4.70;;;;;;;;;;5099987;28;20403;-84
2021/06/15 02:59:28;;;;;;;5.03;4.47;;;;;;;;;;5079593;28;20185;-85
2021/06/15 03:01:54;;;;;;;5.50;4.90;;;;;;;;;;5080389;28;20199;-85
2021/06/15 03:04:21;;;;;;;5.20;4.10;;;;;;;;;;5080124;28;20463;-84
2021/06/15 03:06:47;;;;;;;5.85;4.65;;;;;;;;;;5082735;28;20710;-84
2021/06/15 03:09:13;;;;;;;5.93;4.78;;;;;;;;;;5082794;28;20174;-85
2021/06/15 03:11:45;;;;;;;5.10;4.60;;;;;;;;;;5082317;28;20184;-85
2021/06/15 03:14:14;;;;;;;4.75;4.18;;;;;;;;;;5080771;28;20195;-84
2021/06/15 03:16:40;;;;;;;5.22;4.68;;;;;;;;;;5081027;28;20184;-86
2021/06/15 03:19:17;;;;;;;5.35;4.45;;;;;;;;;;5081048;28;20188;-85
2021/06/15 03:21:51;;;;;;;6.40;4.07;;;;;;;;;;5081226;28;20183;-85
2021/06/15 03:24:20;;;;;;;8.13;5.05;;;;;;;;;;5084098;28;20210;-85
2021/06/15 03:26:51;;;;;;;5.40;4.82;;;;;;;;;;5095160;28;20688;-85
2021/06/15 03:29:21;;;;;;;4.82;4.40;;;;;;;;;;5083838;28;20180;-85
2021/06/15 03:31:50;;;;;;;4.35;3.95;;;;;;;;;;5079915;28;20187;-85
2021/06/15 03:34:19;;;;;;;5.70;4.40;;;;;;;;;;5082595;28;20180;-85
2021/06/15 03:36:46;;;;;;;6.30;5.05;;;;;;;;;;5078734;28;20223;-85
2021/06/15 03:39:13;;;;;;;6.20;5.25;;;;;;;;;;5082486;28;20183;-85
2021/06/15 03:41:41;;;;;;;5.28;4.82;;;;;;;;;;5091424;28;20658;-84
2021/06/15 03:44:07;;;;;;;4.53;4.20;;;;;;;;;;5075843;28;20188;-84
2021/06/15 03:46:33;;;;;;;5.43;5.03;;;;;;;;;;5079094;28;20203;-85
2021/06/15 03:49:01;;;;;;;5.57;4.70;;;;;;;;;;5081025;28;20188;-85
2021/06/15 03:51:29;;;;;;;9.63;5.63;;;;;;;;;;5081321;28;20179;-85
2021/06/15 03:54:06;;;;;;;8.07;4.65;;;;;;;;;;5097570;28;20264;-85
2021/06/15 03:56:34;;;;;;;4.85;4.40;;;;;;;;;;5079765;28;20224;-85
2021/06/15 03:59:00;;;;;;;4.70;4.25;;;;;;;;;;5078954;28;20196;-85
2021/06/15 04:01:26;;;;;;;4.97;4.53;;;;;;;;;;5078964;28;20255;-85
2021/06/15 04:03:52;;;;;;;4.97;4.28;;;;;;;;;;5082524;28;20192;-85
2021/06/15 04:06:19;;;;;;;4.30;3.92;;;;;;;;;;5080569;28;20302;-84
2021/06/15 04:08:46;;;;;;;4.60;4.20;;;;;;;;;;5082818;28;20204;-84
2021/06/15 04:11:12;;;;;;;7.53;4.68;;;;;;;;;;5078921;28;20206;-84
2021/06/15 04:13:40;;;;;;;5.35;4.82;;;;;;;;;;5084505;28;20195;-84
2021/06/15 04:16:07;;;;;;;6.95;5.95;;;;;;;;;;5088355;28;20251;-85
2021/06/15 04:18:35;;;;;;;4.40;4.00;;;;;;;;;;5079871;28;20211;-85
2021/06/15 04:21:03;;;;;;;4.35;3.95;;;;;;;;;;5094394;28;20169;-85
2021/06/15 04:23:30;;;;;;;7.38;5.03;;;;;;;;;;5092207;28;20650;-85
2021/06/15 04:25:57;;;;;;;7.95;4.50;;;;;;;;;;5080658;28;20208;-85
2021/06/15 04:28:23;;;;;;;4.85;4.40;;;;;;;;;;5080090;28;20176;-84
2021/06/15 04:30:50;;;;;;;5.22;4.25;;;;;;;;;;5080150;28;20177;-84
2021/06/15 04:33:17;;;;;;;4.40;4.00;;;;;;;;;;5081223;28;20242;-84
2021/06/15 04:35:44;;;;;;;5.03;4.35;;;;;;;;;;5091120;28;20238;-84
2021/06/15 04:38:12;;;;;;;4.57;4.18;;;;;;;;;;5078568;28;20177;-84
2021/06/15 04:40:40;;;;;;;4.20;3.90;;;;;;;;;;5078756;28;20657;-85
2021/06/15 04:43:12;;;;;;;4.57;4.18;;;;;;;;;;5081594;28;20176;-84
2021/06/15 04:45:46;;;;;;;5.47;4.40;;;;;;;;;;5079420;28;20233;-84
2021/06/15 04:48:18;;;;;;;4.20;3.80;;;;;;;;;;5079431;28;20216;-84
2021/06/15 04:50:44;;;;;;;4.35;3.97;;;;;;;;;;5080054;28;20626;-84
2021/06/15 04:53:10;;;;;;;4.30;3.88;;;;;;;;;;5079076;28;20200;-83
2021/06/15 04:55:37;;;;;;;7.22;4.80;;;;;;;;;;5078250;28;20180;-84
2021/06/15 04:58:04;;;;;;;4.40;4.00;;;;;;;;;;5081087;28;20219;-83
2021/06/15 05:00:31;;;;;;;6.18;4.60;;;;;;;;;;5079955;28;20248;-84
2021/06/15 05:02:58;;;;;;;4.53;3.92;;;;;;;;;;5082025;28;20548;-83
2021/06/15 05:05:24;;;;;;;6.00;4.30;;;;;;;;;;5077969;28;20203;-84
2021/06/15 05:08:00;;;;;;;4.57;3.75;;;;;;;;;;5079584;28;20185;-84
2021/06/15 05:10:27;;;;;;;3.90;3.60;;;;;;;;;;5088089;28;20176;-84
2021/06/15 05:12:53;;;;;;;4.63;4.05;;;;;;;;;;5079664;28;20177;-84
2021/06/15 05:15:21;;;;;;;4.53;4.10;;;;;;;;;;5080427;28;20176;-84
2021/06/15 05:17:48;;;;;;;4.90;3.38;;;;;;;;;;5081497;28;20638;-84
2021/06/15 05:20:15;;;;;;;4.47;4.18;;;;;;;;;;5078971;28;20196;-83
2021/06/15 05:22:53;;;;;;;5.25;4.30;;;;;;;;;;5078416;28;20200;-84
2021/06/15 05:25:19;;;;;;;4.57;4.18;;;;;;;;;;5080910;28;20627;-84
2021/06/15 05:27:45;;;;;;;4.00;3.50;;;;;;;;;;5079300;28;20183;-85
2021/06/15 05:30:12;;;;;;;5.03;4.45;;;;;;;;;;5081771;28;20229;-84
2021/06/15 05:32:38;;;;;;;5.47;4.15;;;;;;;;;;5078196;28;20161;-84
2021/06/15 05:35:04;;;;;;;5.15;4.20;;;;;;;;;;5077849;28;20189;-85
2021/06/15 05:37:30;;;;;;;4.60;4.20;;;;;;;;;;5079675;28;20203;-84
2021/06/15 05:39:56;;;;;;;4.65;4.25;;;;;;;;;;5079713;28;20173;-85
2021/06/15 05:42:22;;;;;;;4.30;3.90;;;;;;;;;;5083397;28;20168;-87
2021/06/15 05:44:48;;;;;;;5.75;4.30;;;;;;;;;;5085621;28;20179;-86
2021/06/15 05:47:15;;;;;;;5.93;4.87;;;;;;;;;;5081305;28;20243;-84
2021/06/15 05:49:41;;;;;;;7.88;4.97;;;;;;;;;;5081694;28;20447;-85
2021/06/15 05:52:12;;;;;;;6.10;4.32;;;;;;;;;;5083105;28;20187;-84
2021/06/15 05:54:38;;;;;;;6.20;5.60;;;;;;;;;;5082768;28;20177;-84
2021/06/15 05:57:05;;;;;;;4.78;4.38;;;;;;;;;;5086030;28;20180;-84
2021/06/15 05:59:31;;;;;;;6.70;5.28;;;;;;;;;;5082515;28;20178;-84
2021/06/15 06:01:57;;;;;;;4.70;4.20;;;;;;;;;;5080885;28;20181;-85
2021/06/15 06:04:26;;;;;;;5.20;4.47;;;;;;;;;;5083389;28;20215;-85
2021/06/15 06:09:39;;;;;;;5.30;4.25;;;;;;;;;;5060477;28;20204;-83
2021/06/15 06:12:06;;;;;;;5.25;4.82;;;;;;;;;;5046249;28;20199;-83
2021/06/15 06:14:32;;;;;;;7.63;5.03;;;;;;;;;;5063924;28;20216;-82
2021/06/15 06:16:58;;;;;;;8.50;4.60;;;;;;;;;;5048254;28;20658;-84
2021/06/15 06:19:24;;;;;;;5.22;4.55;;;;;;;;;;5046194;28;20219;-82
2021/06/15 06:21:50;;;;;;;5.88;5.03;;;;;;;;;;5061468;28;20185;-82
2021/06/15 06:24:18;;;;;;;5.45;4.57;;;;;;;;;;5053838;28;20182;-83
2021/06/15 06:26:49;;;;;;;6.03;4.63;;;;;;;;;;5044109;28;20400;-84
2021/06/15 06:29:15;;;;;;;5.43;4.40;;;;;;;;;;5059090;28;20186;-82
2021/06/15 06:31:41;;;;;;;5.90;4.82;;;;;;;;;;5042851;28;20191;-84
2021/06/15 06:34:07;;;;;;;4.70;3.80;;;;;;;;;;5061616;28;20210;-83
2021/06/15 06:36:33;;;;;;;3.75;3.42;;;;;;;;;;5060824;28;20527;-84
2021/06/15 06:38:59;;;;;;;8.80;4.30;;;;;;;;;;5051207;28;20213;-83
2021/06/15 06:41:27;;;;;;;7.53;4.60;;;;;;;;;;5043500;28;20199;-84
2021/06/15 06:43:54;;;;;;;4.85;4.38;;;;;;;;;;5059271;28;20434;-83
2021/06/15 06:46:20;;;;;;;6.47;5.10;;;;;;;;;;5066315;28;20219;-83
2021/06/15 06:48:46;;;;;;;6.30;5.33;;;;;;;;;;5079614;28;20218;-83
2021/06/15 06:51:12;;;;;;;7.33;4.37;;;;;;;;;;5082867;28;20414;-84
2021/06/15 06:53:38;;;;;;;6.30;4.65;;;;;;;;;;5083898;28;20421;-83
2021/06/15 06:56:07;;;;;;;5.63;4.70;;;;;;;;;;5079585;28;20194;-84
2021/06/15 06:58:33;;;;;;;6.32;4.15;;;;;;;;;;5072224;28;20509;-83
2021/06/15 07:01:00;;;;;;;8.02;4.60;;;;;;;;;;5087916;28;20681;-84
2021/06/15 07:03:26;;;;;;;6.55;4.38;;;;;;;;;;5081881;28;20190;-83
2021/06/15 07:05:52;;;;;;;4.25;3.85;;;;;;;;;;5088972;28;20767;-86
2021/06/15 07:08:18;;;;;;;7.00;5.07;;;;;;;;;;5078749;28;20203;-85
2021/06/15 07:10:44;;;;;;;8.33;4.83;;;;;;;;;;5079204;28;20437;-85
2021/06/15 07:13:10;;;;;;;5.10;4.33;;;;;;;;;;5081216;28;20591;-86
2021/06/15 07:15:36;;;;;;;5.35;4.90;;;;;;;;;;5075391;28;20451;-84
2021/06/15 07:18:02;;;;;;;5.93;4.90;;;;;;;;;;5092136;28;20188;-85
2021/06/15 07:20:28;;;;;;;8.10;4.60;;;;;;;;;;5092260;28;20447;-84
2021/06/15 07:22:54;;;;;;;5.70;5.10;;;;;;;;;;5075854;28;20468;-85
2021/06/15 07:25:20;;;;;;;8.25;4.53;;;;;;;;;;5095214;28;21122;-84
2021/06/15 07:27:47;;;;;;;4.87;4.33;;;;;;;;;;5080667;28;20196;-83
2021/06/15 07:30:13;;;;;;;5.17;4.50;;;;;;;;;;5078345;28;20428;-82
2021/06/15 07:32:39;;;;;;;6.37;4.50;;;;;;;;;;5082089;28;20790;-84
2021/06/15 07:35:06;;;;;;;6.60;4.63;;;;;;;;;;5080398;28;20446;-83
2021/06/15 07:37:32;;;;;;;7.47;4.83;;;;;;;;;;5081706;28;20423;-85
2021/06/15 07:39:58;;;;;;;4.90;4.50;;;;;;;;;;5081666;28;20551;-84
2021/06/15 07:42:28;;;;;;;5.10;4.40;;;;;;;;;;5080517;28;20426;-85
2021/06/15 07:44:54;;;;;;;5.60;4.10;;;;;;;;;;5079574;28;20426;-84
2021/06/15 07:47:20;;;;;;;5.20;3.80;;;;;;;;;;5080244;28;20470;-84
2021/06/15 07:49:46;;;;;;;6.77;3.70;;;;;;;;;;5082025;28;20489;-86
2021/06/15 07:52:12;;;;;;;5.43;4.03;;;;;;;;;;5081689;28;20430;-84
2021/06/15 07:54:41;;;;;;;5.80;4.63;;;;;;;;;;5080776;28;20443;-85
2021/06/15 07:57:08;;;;;;;7.10;4.30;;;;;;;;;;5082995;28;20788;-83
2021/06/15 07:59:34;;;;;;;5.90;4.73;;;;;;;;;;5078822;28;21294;-85
2021/06/15 08:02:00;;;;;;;4.30;3.90;;;;;;;;;;5080733;28;20523;-84
2021/06/15 08:04:26;;;;;;;7.00;4.70;;;;;;;;;;5077440;28;20559;-86
2021/06/15 08:06:52;;;;;;;5.50;3.93;;;;;;;;;;5079349;28;20581;-85
2021/06/15 08:09:18;;;;;;;4.87;4.37;;;;;;;;;;5083243;28;20413;-86
2021/06/15 08:11:44;;;;;;;9.00;5.00;;;;;;;;;;5090982;28;20443;-85
2021/06/15 08:14:10;;;;;;;6.13;4.83;;;;;;;;;;5079450;28;20434;-86
2021/06/15 08:16:36;;;;;;;7.33;4.70;;;;;;;;;;5087753;28;20450;-85
2021/06/15 08:19:02;;;;;;;6.63;4.20;;;;;;;;;;5081103;28;20477;-85
2021/06/15 08:21:28;;;;;;;4.73;4.23;;;;;;;;;;5082392;28;20389;-86
2021/06/15 08:23:54;;;;;;;7.40;4.30;;;;;;;;;;5082686;28;20418;-85
2021/06/15 08:26:20;;;;;;;5.67;4.30;;;;;;;;;;5079563;28;20462;-85
2021/06/15 08:28:46;;;;;;;6.00;5.00;;;;;;;;;;5077876;28;20427;-86
2021/06/15 08:31:12;;;;;;;4.50;4.10;;;;;;;;;;5080480;28;20455;-85
2021/06/15 08:33:38;;;;;;;4.40;4.00;;;;;;;;;;5080693;28;20481;-85
2021/06/15 08:36:04;;;;;;;5.30;4.33;;;;;;;;;;5079678;28;20437;-86
2021/06/15 08:38:30;;;;;;;11.23;4.73;;;;;;;;;;5080460;28;20409;-85
2021/06/15 08:40:56;;;;;;;5.70;4.60;;;;;;;;;;5075532;28;20442;-85
2021/06/15 08:43:22;;;;;;;8.13;5.30;;;;;;;;;;5075532;28;20435;-83
2021/06/15 08:45:49;;;;;;;4.23;3.93;;;;;;;;;;5077045;28;20474;-86
2021/06/15 08:48:15;;;;;;;6.43;4.57;;;;;;;;;;5081136;28;20820;-84
2021/06/15 08:50:43;;;;;;;4.63;4.03;;;;;;;;;;5070891;28;20455;-84
2021/06/15 08:53:10;;;;;;;5.90;5.03;;;;;;;;;;5073963;28;20423;-86
2021/06/15 08:55:36;;;;;;;5.30;4.40;;;;;;;;;;5079741;28;20446;-82
2021/06/15 08:58:21;;;;;;;7.00;4.60;;;;;;;;;;5081864;28;20422;-89
2021/06/15 09:00:47;;;;;;;7.13;4.80;;;;;;;;;;5075314;28;20476;-82
2021/06/15 09:03:14;;;;;;;9.87;5.13;;;;;;;;;;5081864;28;20624;-82
2021/06/15 09:05:41;;;;;;;5.73;5.13;;;;;;;;;;5081835;28;20443;-84
2021/06/15 09:08:08;;;;;;;5.83;4.97;;;;;;;;;;5078131;28;20409;-83
2021/06/15 09:10:39;;;;;;;6.40;4.20;;;;;;;;;;5077869;28;20431;-85
2021/06/15 09:13:05;;;;;;;7.80;5.30;;;;;;;;;;5079770;28;20408;-83
2021/06/15 09:15:32;;;;;;;5.20;4.70;;;;;;;;;;5082807;28;20424;-84
2021/06/15 09:17:58;;;;;;;6.43;5.10;;;;;;;;;;5095965;28;20413;-84
2021/06/15 09:20:27;;;;;;;9.03;5.20;;;;;;;;;;5082387;28;20439;-85
2021/06/15 09:22:57;;;;;;;6.40;5.00;;;;;;;;;;5083660;28;20892;-87
2021/06/15 09:25:24;;;;;;;6.20;4.30;;;;;;;;;;5072731;28;20444;-86
2021/06/15 09:27:51;;;;;;;8.90;5.50;;;;;;;;;;5083878;28;20398;-84
2021/06/15 09:30:17;;;;;;;7.90;4.80;;;;;;;;;;5085070;28;20421;-84
2021/06/15 09:32:46;;;;;;;5.90;4.63;;;;;;;;;;5084290;28;20410;-85
2021/06/15 09:35:14;;;;;;;10.17;4.60;;;;;;;;;;5082090;28;20443;-87
2021/06/15 09:37:43;;;;;;;8.80;5.07;;;;;;;;;;5082124;28;20439;-84
2021/06/15 09:40:20;;;;;;;5.00;4.50;;;;;;;;;;5085078;28;20411;-86
2021/06/15 09:43:01;;;;;;;5.03;4.53;;;;;;;;;;5093466;28;20413;-82
2021/06/15 09:45:35;;;;;;;4.70;3.77;;;;;;;;;;5085451;28;20733;-84
2021/06/15 09:48:31;;;;;;;6.27;4.80;;;;;;;;;;5085651;28;20460;-83
2021/06/15 09:50:57;;;;;;;7.43;5.10;;;;;;;;;;5079252;28;20472;-84
2021/06/15 09:53:24;;;;;;;5.20;4.70;;;;;;;;;;5082613;28;20402;-85
2021/06/15 09:55:50;;;;;;;5.30;4.80;;;;;;;;;;5081447;28;20451;-82
2021/06/15 09:58:16;;;;;;;5.27;4.70;;;;;;;;;;5081688;28;20415;-82
2021/06/15 10:00:42;;;;;;;6.30;4.57;;;;;;;;;;5083617;28;20500;-88
2021/06/15 10:03:16;;;;;;;4.33;3.93;;;;;;;;;;5096598;28;20423;-86
2021/06/15 10:05:42;;;;;;;4.80;4.27;;;;;;;;;;5085047;28;20507;-84
2021/06/15 10:08:11;;;;;;;6.00;4.93;;;;;;;;;;5082298;28;20435;-84
2021/06/15 10:10:41;;;;;;;5.00;3.53;;;;;;;;;;5081636;28;20803;-83
2021/06/15 10:13:08;;;;;;;6.30;4.30;;;;;;;;;;5084173;28;20426;-82
2021/06/15 10:15:35;;;;;;;4.30;3.80;;;;;;;;;;5083465;28;20435;-86
2021/06/15 10:18:01;;;;;;;6.20;4.10;;;;;;;;;;5085527;28;20938;-87
2021/06/15 10:20:28;;;;;;;5.67;4.70;;;;;;;;;;5081236;28;20482;-82
2021/06/15 10:22:55;;;;;;;6.17;4.20;;;;;;;;;;5080246;28;20439;-80
2021/06/15 10:25:22;;;;;;;5.03;4.37;;;;;;;;;;5081986;28;20435;-85
2021/06/15 10:27:50;;;;;;;5.23;4.73;;;;;;;;;;5082434;28;20453;-84
2021/06/15 10:30:16;;;;;;;7.23;5.67;;;;;;;;;;5086084;28;20391;-84
2021/06/15 10:32:59;;;;;;;7.90;5.93;;;;;;;;;;5082793;28;20478;-84
2021/06/15 10:35:42;;;;;;;6.60;5.47;;;;;;;;;;5081287;28;20449;-89
2021/06/15 10:38:08;;;;;;;6.93;4.80;;;;;;;;;;5080311;28;20525;-80
2021/06/15 10:40:35;;;;;;;5.40;4.97;;;;;;;;;;5083913;28;20450;-82
2021/06/15 10:43:21;;;;;;;5.80;4.60;;;;;;;;;;5081682;28;20476;-82
2021/06/15 10:45:51;;;;;;;4.33;3.90;;;;;;;;;;5092576;28;21016;-81
2021/06/15 10:48:17;;;;;;;8.50;4.93;;;;;;;;;;5084796;28;20529;-83
2021/06/15 10:50:44;;;;;;;7.40;4.50;;;;;;;;;;5095453;28;20430;-82
2021/06/15 10:53:11;;;;;;;4.70;4.20;;;;;;;;;;5080957;28;20438;-86
2021/06/15 10:55:50;;;;;;;7.27;4.13;;;;;;;;;;5082311;28;20438;-86
2021/06/15 10:58:32;;;;;;;3.97;3.67;;;;;;;;;;5083546;28;20448;-85
2021/06/15 11:01:13;;;;;;;5.27;3.40;;;;;;;;;;5081937;28;20425;-85
2021/06/15 11:03:46;;;;;;;3.17;2.97;;;;;;;;;;5081675;28;20655;-85
2021/06/15 11:06:13;;;;;;;3.67;3.37;;;;;;;;;;5079978;28;20961;-85
2021/06/15 11:08:39;;;;;;;5.60;2.93;;;;;;;;;;5080727;28;20658;-81
2021/06/15 11:11:17;;;;;;;3.57;3.00;;;;;;;;;;5080238;28;20430;-85
2021/06/15 11:13:48;;;;;;;3.53;2.87;;;;;;;;;;5075532;28;20433;-87
2021/06/15 11:16:25;;;;;;;3.60;3.30;;;;;;;;;;5081568;28;20436;-85
2021/06/15 11:19:13;;;;;;;3.50;3.30;;;;;;;;;;5092555;28;20479;-82
2021/06/15 11:21:45;;;;;;;3.73;3.30;;;;;;;;;;5080878;28;20452;-81
2021/06/15 11:24:20;;;;;;;3.87;3.47;;;;;;;;;;5079119;28;20428;-82
2021/06/15 11:26:47;;;;;;;3.73;3.40;;;;;;;;;;5083620;28;20443;-85
2021/06/15 11:29:27;;;;;;;4.00;3.30;;;;;;;;;;5081591;28;20500;-82
2021/06/15 11:31:53;;;;;;;3.50;3.20;;;;;;;;;;5079114;28;20438;-85
2021/06/15 11:34:20;;;;;;;3.70;3.40;;;;;;;;;;5080882;28;20677;-91
2021/06/15 11:36:46;;;;;;;3.57;3.03;;;;;;;;;;5081410;28;20440;-80
2021/06/15 11:39:32;;;;;;;2.87;2.63;;;;;;;;;;5081546;28;20431;-82
2021/06/15 11:42:20;;;;;;;3.10;2.90;;;;;;;;;;5083677;28;20425;-86
2021/06/15 11:44:48;;;;;;;3.10;2.90;;;;;;;;;;5083800;28;20454;-86
2021/06/15 11:47:23;;;;;;;5.30;3.67;;;;;;;;;;5077153;28;20481;-83
2021/06/15 11:50:07;;;;;;;4.00;3.57;;;;;;;;;;5075059;28;20445;-85
2021/06/15 11:52:34;;;;;;;3.57;3.27;;;;;;;;;;5071532;28;20520;-84
2021/06/15 11:55:01;;;;;;;3.63;3.33;;;;;;;;;;5079707;28;20513;-82
2021/06/15 11:57:27;;;;;;;3.20;3.00;;;;;;;;;;5082645;28;20406;-83
2021/06/15 11:59:53;;;;;;;4.00;3.70;;;;;;;;;;5095468;28;20767;-81
2021/06/15 12:02:20;;;;;;;3.50;3.20;;;;;;;;;;5088702;28;20442;-83
2021/06/15 12:05:11;;;;;;;3.60;3.30;;;;;;;;;;5079114;28;20472;-85
2021/06/15 12:07:38;;;;;;;3.47;3.17;;;;;;;;;;5093728;28;20484;-81
2021/06/15 12:10:15;;;;;;;3.47;3.27;;;;;;;;;;5080891;28;20441;-85
2021/06/15 12:12:56;;;;;;;3.50;3.20;;;;;;;;;;5079495;28;20461;-86
2021/06/15 12:15:23;;;;;;;3.13;2.90;;;;;;;;;;5093245;28;20427;-81
2021/06/15 12:17:49;;;;;;;3.20;2.90;;;;;;;;;;5082552;28;20440;-86
2021/06/15 12:20:21;;;;;;;3.40;3.20;;;;;;;;;;5079041;28;20448;-81
2021/06/15 12:22:47;;;;;;;3.67;3.37;;;;;;;;;;5078675;28;20822;-82
2021/06/15 12:25:13;;;;;;;5.27;3.60;;;;;;;;;;5080177;28;20508;-85
2021/06/15 12:27:39;;;;;;;3.57;3.37;;;;;;;;;;5080490;28;20465;-84
2021/06/15 12:30:05;;;;;;;4.10;3.80;;;;;;;;;;5083269;28;20426;-87
2021/06/15 12:32:47;;;;;;;4.87;2.97;;;;;;;;;;5078472;28;20454;-88
2021/06/15 12:35:17;;;;;;;3.60;3.30;;;;;;;;;;5079607;28;20446;-85
2021/06/15 12:37:43;;;;;;;2.77;2.63;;;;;;;;;;5080076;28;20430;-86
2021/06/15 12:40:09;;;;;;;3.93;3.43;;;;;;;;;;5080233;28;20434;-80
2021/06/15 12:42:35;;;;;;;5.00;3.97;;;;;;;;;;5073845;28;20526;-83
2021/06/15 12:45:01;;;;;;;3.80;3.50;;;;;;;;;;5075972;28;20431;-84
2021/06/15 12:47:29;;;;;;;4.10;3.50;;;;;;;;;;5077502;28;20466;-84
2021/06/15 12:49:56;;;;;;;3.17;2.87;;;;;;;;;;5081540;28;20453;-86
2021/06/15 12:52:32;;;;;;;5.30;3.90;;;;;;;;;;5083489;28;20442;-86
2021/06/15 12:55:08;;;;;;;4.80;3.13;;;;;;;;;;5087385;28;20479;-86
2021/06/15 12:57:34;;;;;;;3.47;3.17;;;;;;;;;;5084179;28;20442;-85
2021/06/15 13:00:01;;;;;;;4.70;4.10;;;;;;;;;;5086547;28;20426;-87
2021/06/15 13:02:28;;;;;;;3.93;3.63;;;;;;;;;;5082274;28;20739;-88
2021/06/15 13:05:01;;;;;;;3.73;3.53;;;;;;;;;;5085270;28;20450;-87
2021/06/15 13:07:28;;;;;;;8.30;3.90;;;;;;;;;;5083290;28;20514;-85
2021/06/15 13:09:56;;;;;;;4.90;4.50;;;;;;;;;;5085621;28;20518;-85
2021/06/15 13:12:27;;;;;;;4.40;3.70;;;;;;;;;;5085886;28;20424;-81
2021/06/15 13:14:55;;;;;;;4.13;3.43;;;;;;;;;;5085101;28;20413;-82
2021/06/15 13:17:24;;;;;;;3.80;3.50;;;;;;;;;;5082529;28;20434;-85
2021/06/15 13:19:52;;;;;;;3.00;2.80;;;;;;;;;;5082193;28;20446;-83
2021/06/15 13:22:19;;;;;;;3.93;3.63;;;;;;;;;;5085049;28;20795;-83
2021/06/15 13:24:46;;;;;;;3.30;2.80;;;;;;;;;;5083722;28;20459;-84
2021/06/15 13:27:39;;;;;;;3.83;2.87;;;;;;;;;;5085081;28;20454;-85
2021/06/15 13:30:05;;;;;;;3.97;3.23;;;;;;;;;;5086223;28;20411;-84
2021/06/15 13:32:31;;;;;;;3.43;3.13;;;;;;;;;;5078128;28;20438;-84
2021/06/15 13:34:58;;;;;;;3.83;2.80;;;;;;;;;;5083077;28;20504;-82
2021/06/15 13:37:28;;;;;;;4.13;3.27;;;;;;;;;;5082818;28;20498;-82
2021/06/15 13:39:54;;;;;;;3.43;3.13;;;;;;;;;;5081328;28;20503;-80
2021/06/15 13:42:29;;;;;;;5.77;3.03;;;;;;;;;;5084800;28;20453;-82
2021/06/15 13:45:12;;;;;;;4.63;2.73;;;;;;;;;;5084661;28;20526;-83
2021/06/15 13:47:39;;;;;;;2.97;2.77;;;;;;;;;;5080850;28;20504;-83
2021/06/15 13:50:07;;;;;;;2.97;2.67;;;;;;;;;;5083029;28;20627;-87
2021/06/15 13:52:33;;;;;;;4.03;3.00;;;;;;;;;;5081584;28;20844;-86
2021/06/15 13:54:59;;;;;;;3.20;2.90;;;;;;;;;;5082661;28;20437;-86
2021/06/15 13:57:25;;;;;;;3.13;2.83;;;;;;;;;;5084328;28;20816;-85
2021/06/15 13:59:51;;;;;;;3.63;2.70;;;;;;;;;;5084635;28;20440;-89
2021/06/15 14:02:17;;;;;;;4.17;2.77;;;;;;;;;;5083653;28;20459;-86
2021/06/15 14:04:43;;;;;;;2.40;2.20;;;;;;;;;;5081597;28;20450;-86
2021/06/15 14:07:09;;;;;;;5.87;2.73;;;;;;;;;;5083365;28;20850;-84
2021/06/15 14:09:36;;;;;;;2.73;2.50;;;;;;;;;;5085362;28;20911;-85
2021/06/15 14:12:03;;;;;;;2.70;2.50;;;;;;;;;;5081370;28;20925;-84
2021/06/15 14:14:29;;;;;;;9.77;3.20;;;;;;;;;;5081195;28;20438;-82
2021/06/15 14:16:55;;;;;;;2.67;2.47;;;;;;;;;;5082277;28;20467;-85
2021/06/15 14:19:22;;;;;;;3.30;2.77;;;;;;;;;;5076100;28;20654;-84
2021/06/15 14:21:48;;;;;;;3.40;2.77;;;;;;;;;;5082469;28;20433;-86
2021/06/15 14:24:14;;;;;;;3.33;2.63;;;;;;;;;;5082887;28;20445;-79
2021/06/15 14:26:40;;;;;;;5.00;3.10;;;;;;;;;;5097195;28;20549;-85
2021/06/15 14:29:06;;;;;;;3.10;2.90;;;;;;;;;;5081095;28;20435;-82
2021/06/15 14:31:32;;;;;;;3.77;2.97;;;;;;;;;;5081194;28;20438;-84
2021/06/15 14:33:59;;;;;;;2.67;2.47;;;;;;;;;;5080377;28;20442;-87
2021/06/15 14:36:25;;;;;;;3.00;2.70;;;;;;;;;;5080153;28;20446;-85
2021/06/15 14:38:53;;;;;;;2.87;2.60;;;;;;;;;;5082815;28;20784;-83
2021/06/15 14:41:19;;;;;;;5.87;2.67;;;;;;;;;;5077515;28;20436;-86
2021/06/15 14:43:45;;;;;;;3.80;2.30;;;;;;;;;;5076947;28;20451;-83
2021/06/15 14:46:11;;;;;;;2.90;2.60;;;;;;;;;;5093216;28;20466;-87
2021/06/15 14:48:37;;;;;;;2.73;2.53;;;;;;;;;;5080384;28;20481;-83
2021/06/15 14:51:03;;;;;;;2.80;2.60;;;;;;;;;;5097907;28;20732;-82
2021/06/15 14:53:29;;;;;;;3.47;3.17;;;;;;;;;;5080729;28;20433;-84